createdAt,value
2022-11-05T00:00:49.217Z,79.73022461
2022-11-05T00:01:49.970Z,79.73022461
2022-11-05T00:02:50.707Z,79.83398438
2022-11-05T00:03:51.971Z,79.93164063
2022-11-05T00:04:52.568Z,79.93164063
2022-11-05T00:05:53.175Z,79.62646484
2022-11-05T00:06:53.682Z,79.73022461
2022-11-05T00:07:54.212Z,80.03540039
2022-11-05T00:08:54.858Z,80.13916016
2022-11-05T00:10:26.849Z,79.93164063
2022-11-05T00:11:27.410Z,79.83398438
2022-11-05T00:12:28.046Z,79.83398438
2022-11-05T00:13:28.586Z,80.03540039
2022-11-05T00:14:29.180Z,80.24291992
2022-11-05T00:15:30.028Z,80.34667969
2022-11-05T00:16:30.527Z,80.45043945
2022-11-05T00:17:31.096Z,80.65185547
2022-11-05T00:18:32.426Z,80.75561523
2022-11-05T00:19:33.947Z,80.75561523
2022-11-05T00:20:34.700Z,80.65185547
2022-11-05T00:21:35.173Z,80.34667969
2022-11-05T00:22:35.619Z,80.24291992
2022-11-05T00:23:36.253Z,80.24291992
2022-11-05T00:24:37.054Z,80.34667969
2022-11-05T00:25:37.847Z,80.45043945
2022-11-05T00:26:38.675Z,80.65185547
2022-11-05T00:27:39.150Z,80.75561523
2022-11-05T00:28:39.919Z,80.75561523
2022-11-05T00:29:41.006Z,80.859375
2022-11-05T00:30:41.582Z,80.96313477
2022-11-05T00:31:42.190Z,80.96313477
2022-11-05T00:32:42.683Z,81.06079102
2022-11-05T00:33:43.845Z,81.16455078
2022-11-05T00:34:44.796Z,81.26831055
2022-11-05T00:35:45.436Z,81.37207031
2022-11-05T00:36:46.125Z,80.96313477
2022-11-05T00:37:50.107Z,80.859375
2022-11-05T00:38:47.936Z,80.75561523
2022-11-05T00:39:48.535Z,80.65185547
2022-11-05T00:40:49.956Z,80.75561523
2022-11-05T00:41:50.660Z,80.96313477
2022-11-05T00:42:51.393Z,80.75561523
2022-11-05T00:43:51.951Z,80.5847168
2022-11-05T00:44:52.431Z,80.38330078
2022-11-05T00:45:53.139Z,80.5847168
2022-11-05T00:46:58.765Z,80.68847656
2022-11-05T00:47:54.385Z,80.79223633
2022-11-05T00:48:55.182Z,80.99975586
2022-11-05T00:50:27.377Z,80.99975586
2022-11-05T00:51:28.147Z,80.99975586
2022-11-05T00:52:28.683Z,80.68847656
2022-11-05T00:53:29.272Z,80.5847168
2022-11-05T00:54:29.968Z,80.5847168
2022-11-05T00:55:30.386Z,80.5847168
2022-11-05T00:56:31.589Z,80.5847168
2022-11-05T00:57:32.382Z,80.38330078
2022-11-05T00:58:32.958Z,80.34667969
2022-11-05T00:59:33.495Z,80.45043945
2022-11-05T01:00:34.250Z,80.34667969
2022-11-05T01:01:36.073Z,80.5480957
2022-11-05T01:02:36.916Z,80.13916016
2022-11-05T01:03:37.352Z,79.66308594
2022-11-05T01:04:37.954Z,79.87060547
2022-11-05T01:05:38.510Z,80.17578125
2022-11-05T01:06:39.158Z,80.17578125
2022-11-05T01:07:39.900Z,80.07202148
2022-11-05T01:08:40.605Z,79.83398438
2022-11-05T01:09:41.981Z,79.83398438
2022-11-05T01:10:42.738Z,79.83398438
2022-11-05T01:11:44.102Z,79.83398438
2022-11-05T01:12:45.288Z,79.73022461
2022-11-05T01:13:47.152Z,79.73022461
2022-11-05T01:14:48.215Z,79.87060547
2022-11-05T01:15:48.852Z,80.17578125
2022-11-05T01:16:49.592Z,80.48706055
2022-11-05T01:17:50.721Z,80.5847168
2022-11-05T01:18:52.762Z,80.07202148
2022-11-05T01:19:54.409Z,79.97436523
2022-11-05T01:20:55.319Z,80.07202148
2022-11-05T01:22:27.542Z,80.17578125
2022-11-05T01:23:28.078Z,80.17578125
2022-11-05T01:24:29.339Z,80.27954102
2022-11-05T01:25:29.838Z,80.48706055
2022-11-05T01:26:30.315Z,80.79223633
2022-11-05T01:27:31.077Z,80.89599609
2022-11-05T01:28:31.749Z,80.48706055
2022-11-05T01:29:32.345Z,80.38330078
2022-11-05T01:30:33.655Z,80.38330078
2022-11-05T01:31:34.064Z,80.5847168
2022-11-05T01:32:34.814Z,80.48706055
2022-11-05T01:33:35.624Z,80.48706055
2022-11-05T01:34:36.152Z,80.5847168
2022-11-05T01:35:36.863Z,80.5847168
2022-11-05T01:36:37.277Z,80.68847656
2022-11-05T01:37:37.793Z,80.65185547
2022-11-05T01:38:38.618Z,80.45043945
2022-11-05T01:39:39.193Z,80.34667969
2022-11-05T01:40:40.769Z,80.13916016
2022-11-05T01:41:41.449Z,80.03540039
2022-11-05T01:42:41.970Z,80.13916016
2022-11-05T01:43:42.557Z,80.13916016
2022-11-05T01:44:43.177Z,80.03540039
2022-11-05T01:45:43.795Z,80.03540039
2022-11-05T01:46:44.509Z,80.03540039
2022-11-05T01:47:44.966Z,80.03540039
2022-11-05T01:48:45.511Z,80.03540039
2022-11-05T01:49:46.900Z,79.93164063
2022-11-05T01:50:48.256Z,80.03540039
2022-11-05T01:51:48.776Z,80.03540039
2022-11-05T01:52:49.288Z,80.03540039
2022-11-05T01:53:49.758Z,79.73022461
2022-11-05T01:54:50.754Z,79.62646484
2022-11-05T01:55:51.331Z,79.62646484
2022-11-05T01:56:51.889Z,79.73022461
2022-11-05T01:57:52.466Z,79.83398438
2022-11-05T01:58:52.940Z,79.93164063
2022-11-05T01:59:54.044Z,80.34667969
2022-11-05T02:01:26.476Z,80.5480957
2022-11-05T02:02:26.882Z,80.75561523
2022-11-05T02:03:27.302Z,80.89599609
2022-11-05T02:04:27.741Z,80.99975586
2022-11-05T02:05:28.218Z,81.10351563
2022-11-05T02:06:29.162Z,81.06079102
2022-11-05T02:07:29.691Z,80.96313477
2022-11-05T02:08:30.249Z,80.75561523
2022-11-05T02:09:30.900Z,80.65185547
2022-11-05T02:10:32.198Z,80.65185547
2022-11-05T02:11:32.825Z,80.45043945
2022-11-05T02:12:33.412Z,80.34667969
2022-11-05T02:13:33.969Z,80.24291992
2022-11-05T02:14:34.552Z,79.83398438
2022-11-05T02:15:36.000Z,79.52270508
2022-11-05T02:16:36.880Z,79.52270508
2022-11-05T02:17:37.372Z,79.52270508
2022-11-05T02:18:38.445Z,79.41894531
2022-11-05T02:19:39.127Z,79.52270508
2022-11-05T02:20:40.123Z,79.73022461
2022-11-05T02:21:40.616Z,79.83398438
2022-11-05T02:22:41.218Z,79.93164063
2022-11-05T02:23:41.749Z,79.83398438
2022-11-05T02:24:42.446Z,79.83398438
2022-11-05T02:25:42.886Z,79.93164063
2022-11-05T02:26:43.473Z,80.03540039
2022-11-05T02:27:44.139Z,79.93164063
2022-11-05T02:28:44.684Z,79.83398438
2022-11-05T02:29:45.323Z,80.13916016
2022-11-05T02:30:46.858Z,80.45043945
2022-11-05T02:31:47.412Z,80.5480957
2022-11-05T02:32:47.865Z,80.859375
2022-11-05T02:33:48.552Z,81.06079102
2022-11-05T02:34:49.136Z,81.26831055
2022-11-05T02:35:49.636Z,81.37207031
2022-11-05T02:36:50.093Z,81.37207031
2022-11-05T02:37:50.855Z,81.47583008
2022-11-05T02:38:51.370Z,81.67724609
2022-11-05T02:39:51.895Z,81.78100586
2022-11-05T02:40:53.192Z,81.78100586
2022-11-05T02:41:53.705Z,81.98852539
2022-11-05T02:43:24.794Z,82.09228516
2022-11-05T02:44:25.553Z,82.09228516
2022-11-05T02:45:26.089Z,82.18994141
2022-11-05T02:46:26.583Z,82.09228516
2022-11-05T02:47:27.152Z,81.98852539
2022-11-05T02:48:27.713Z,82.09228516
2022-11-05T02:49:28.386Z,82.09228516
2022-11-05T02:50:28.913Z,82.18994141
2022-11-05T02:51:29.969Z,82.29370117
2022-11-05T02:52:30.542Z,82.5012207
2022-11-05T02:53:30.925Z,82.70263672
2022-11-05T02:54:31.340Z,82.91015625
2022-11-05T02:55:31.928Z,82.91015625
2022-11-05T02:56:32.409Z,82.91015625
2022-11-05T02:57:32.968Z,82.91015625
2022-11-05T02:58:33.413Z,82.80639648
2022-11-05T02:59:33.834Z,82.91015625
2022-11-05T03:00:34.467Z,83.01391602
2022-11-05T03:01:35.746Z,82.91015625
2022-11-05T03:02:36.332Z,82.70263672
2022-11-05T03:03:36.675Z,82.70263672
2022-11-05T03:04:37.205Z,82.5012207
2022-11-05T03:05:37.725Z,82.39746094
2022-11-05T03:06:38.263Z,82.29370117
2022-11-05T03:07:38.768Z,82.29370117
2022-11-05T03:08:39.328Z,82.39746094
2022-11-05T03:09:39.731Z,82.39746094
2022-11-05T03:10:40.935Z,82.29370117
2022-11-05T03:11:41.544Z,82.09228516
2022-11-05T03:12:42.045Z,81.88476563
2022-11-05T03:13:42.570Z,81.88476563
2022-11-05T03:14:43.033Z,82.02514648
2022-11-05T03:15:43.432Z,82.23266602
2022-11-05T03:16:43.975Z,82.23266602
2022-11-05T03:17:44.665Z,81.92138672
2022-11-05T03:18:45.126Z,81.61621094
2022-11-05T03:19:45.627Z,81.61621094
2022-11-05T03:20:46.899Z,81.61621094
2022-11-05T03:21:47.307Z,81.61621094
2022-11-05T03:22:47.873Z,81.20117188
2022-11-05T03:23:48.336Z,81.20117188
2022-11-05T03:24:48.835Z,81.40869141
2022-11-05T03:25:49.437Z,81.51245117
2022-11-05T03:26:49.846Z,81.61621094
2022-11-05T03:27:50.531Z,81.61621094
2022-11-05T03:28:51.098Z,81.81762695
2022-11-05T03:29:51.584Z,81.92138672
2022-11-05T03:30:52.896Z,82.23266602
2022-11-05T03:32:23.927Z,82.23266602
2022-11-05T03:33:24.612Z,81.51245117
2022-11-05T03:34:25.102Z,81.51245117
2022-11-05T03:35:25.604Z,81.30493164
2022-11-05T03:36:26.111Z,81.20117188
2022-11-05T03:37:26.514Z,80.99975586
2022-11-05T03:38:27.024Z,80.68847656
2022-11-05T03:39:27.634Z,80.68847656
2022-11-05T03:40:28.167Z,80.79223633
2022-11-05T03:41:28.622Z,80.89599609
2022-11-05T03:42:29.143Z,80.99975586
2022-11-05T03:43:29.738Z,81.30493164
2022-11-05T03:44:30.350Z,81.30493164
2022-11-05T03:45:30.898Z,81.40869141
2022-11-05T03:46:31.371Z,81.20117188
2022-11-05T03:47:31.921Z,81.10351563
2022-11-05T03:48:32.443Z,81.10351563
2022-11-05T03:49:33.418Z,81.20117188
2022-11-05T03:50:40.062Z,81.61621094
2022-11-05T03:51:35.142Z,82.12890625
2022-11-05T03:52:35.603Z,82.33032227
2022-11-05T03:53:36.149Z,82.33032227
2022-11-05T03:54:36.628Z,81.81762695
2022-11-05T03:55:37.149Z,81.71386719
2022-11-05T03:56:37.702Z,81.61621094
2022-11-05T03:57:38.225Z,81.71386719
2022-11-05T03:58:38.664Z,81.71386719
2022-11-05T03:59:39.142Z,81.71386719
2022-11-05T04:00:39.676Z,81.81762695
2022-11-05T04:01:41.387Z,81.92138672
2022-11-05T04:02:41.945Z,82.12890625
2022-11-05T04:03:42.285Z,82.33032227
2022-11-05T04:04:42.815Z,82.23266602
2022-11-05T04:05:43.225Z,82.02514648
2022-11-05T04:06:43.842Z,82.12890625
2022-11-05T04:07:44.348Z,82.12890625
2022-11-05T04:08:44.818Z,81.92138672
2022-11-05T04:09:45.333Z,82.02514648
2022-11-05T04:10:46.443Z,82.02514648
2022-11-05T04:11:47.145Z,82.23266602
2022-11-05T04:12:47.694Z,82.64160156
2022-11-05T04:13:48.170Z,82.64160156
2022-11-05T04:14:48.647Z,82.64160156
2022-11-05T04:15:49.185Z,82.64160156
2022-11-05T04:16:49.746Z,82.43408203
2022-11-05T04:17:50.526Z,82.12890625
2022-11-05T04:18:51.132Z,81.92138672
2022-11-05T04:19:51.571Z,82.02514648
2022-11-05T04:20:53.044Z,81.92138672
2022-11-05T04:22:24.446Z,82.12890625
2022-11-05T04:23:25.082Z,82.33032227
2022-11-05T04:24:25.536Z,82.33032227
2022-11-05T04:25:26.026Z,82.12890625
2022-11-05T04:26:26.429Z,82.02514648
2022-11-05T04:27:26.869Z,81.92138672
2022-11-05T04:28:27.569Z,81.20117188
2022-11-05T04:29:28.135Z,80.68847656
2022-11-05T04:30:28.560Z,80.68847656
2022-11-05T04:31:29.740Z,80.99975586
2022-11-05T04:32:30.185Z,81.10351563
2022-11-05T04:33:30.707Z,81.10351563
2022-11-05T04:34:31.255Z,81.30493164
2022-11-05T04:35:31.721Z,81.40869141
2022-11-05T04:36:32.157Z,81.10351563
2022-11-05T04:37:32.656Z,80.99975586
2022-11-05T04:38:33.115Z,80.99975586
2022-11-05T04:39:33.657Z,80.99975586
2022-11-05T04:40:34.118Z,80.38330078
2022-11-05T04:41:35.192Z,80.17578125
2022-11-05T04:42:35.737Z,79.66308594
2022-11-05T04:43:36.147Z,79.66308594
2022-11-05T04:44:36.688Z,79.97436523
2022-11-05T04:45:37.151Z,80.27954102
2022-11-05T04:46:37.637Z,80.27954102
2022-11-05T04:47:38.155Z,80.07202148
2022-11-05T04:48:38.636Z,79.7668457
2022-11-05T04:49:39.997Z,79.7668457
2022-11-05T04:50:40.667Z,79.97436523
2022-11-05T04:51:41.715Z,80.27954102
2022-11-05T04:52:42.186Z,80.07202148
2022-11-05T04:53:42.715Z,79.87060547
2022-11-05T04:54:43.296Z,79.87060547
2022-11-05T04:55:43.758Z,79.35791016
2022-11-05T04:56:44.354Z,79.25415039
2022-11-05T04:57:44.901Z,79.66308594
2022-11-05T04:58:45.311Z,80.03540039
2022-11-05T04:59:45.939Z,80.24291992
2022-11-05T05:00:46.495Z,80.03540039
2022-11-05T05:01:47.831Z,80.03540039
2022-11-05T05:02:48.369Z,79.93164063
2022-11-05T05:03:48.813Z,79.93164063
2022-11-05T05:04:49.316Z,79.83398438
2022-11-05T05:05:52.956Z,79.83398438
2022-11-05T05:07:20.582Z,80.07202148
2022-11-05T05:08:51.405Z,80.27954102
2022-11-05T05:09:51.902Z,80.38330078
2022-11-05T05:11:23.682Z,80.48706055
2022-11-05T05:12:25.349Z,80.79223633
2022-11-05T05:13:25.847Z,81.10351563
2022-11-05T05:14:26.402Z,81.40869141
2022-11-05T05:15:26.845Z,81.71386719
2022-11-05T05:16:27.277Z,81.81762695
2022-11-05T05:17:27.868Z,81.92138672
2022-11-05T05:18:28.377Z,81.92138672
2022-11-05T05:19:28.883Z,81.92138672
2022-11-05T05:20:30.143Z,82.02514648
2022-11-05T05:21:31.419Z,81.81762695
2022-11-05T05:22:31.947Z,81.71386719
2022-11-05T05:23:32.602Z,81.71386719
2022-11-05T05:24:33.085Z,81.67724609
2022-11-05T05:25:33.603Z,81.78100586
2022-11-05T05:26:34.113Z,81.98852539
2022-11-05T05:27:34.524Z,82.43408203
2022-11-05T05:28:35.029Z,82.39746094
2022-11-05T05:29:35.593Z,82.29370117
2022-11-05T05:30:36.093Z,81.78100586
2022-11-05T05:31:37.452Z,80.75561523
2022-11-05T05:32:37.968Z,80.34667969
2022-11-05T05:33:38.450Z,80.17578125
2022-11-05T05:34:38.947Z,80.48706055
2022-11-05T05:35:39.635Z,80.79223633
2022-11-05T05:36:40.094Z,81.10351563
2022-11-05T05:37:40.501Z,81.61621094
2022-11-05T05:38:41.017Z,81.81762695
2022-11-05T05:39:41.676Z,82.02514648
2022-11-05T05:40:42.972Z,82.12890625
2022-11-05T05:41:43.521Z,82.33032227
2022-11-05T05:42:44.908Z,82.23266602
2022-11-05T05:43:45.400Z,82.33032227
2022-11-05T05:44:45.925Z,82.5378418
2022-11-05T05:45:46.397Z,82.84301758
2022-11-05T05:46:46.902Z,82.74536133
2022-11-05T05:47:47.344Z,82.84301758
2022-11-05T05:48:47.785Z,83.05053711
2022-11-05T05:49:48.337Z,83.15429688
2022-11-05T05:50:48.904Z,83.05053711
2022-11-05T05:51:50.528Z,82.94677734
2022-11-05T05:52:50.991Z,82.91015625
2022-11-05T05:53:51.890Z,83.3190918
2022-11-05T05:55:22.509Z,83.36181641
2022-11-05T05:56:23.809Z,83.36181641
2022-11-05T05:57:24.291Z,83.45947266
2022-11-05T05:58:24.728Z,83.42285156
2022-11-05T05:59:25.201Z,83.45947266
2022-11-05T06:00:26.408Z,83.25805664
2022-11-05T06:01:27.067Z,83.36181641
2022-11-05T06:02:28.396Z,83.45947266
2022-11-05T06:03:28.782Z,83.56323242
2022-11-05T06:04:29.192Z,83.45947266
2022-11-05T06:05:29.671Z,83.45947266
2022-11-05T06:06:30.239Z,83.45947266
2022-11-05T06:07:34.526Z,83.45947266
2022-11-05T06:08:31.237Z,83.56323242
2022-11-05T06:09:31.665Z,83.25805664
2022-11-05T06:10:32.211Z,83.15429688
2022-11-05T06:11:33.536Z,83.15429688
2022-11-05T06:12:33.972Z,83.25805664
2022-11-05T06:13:34.453Z,83.36181641
2022-11-05T06:14:34.965Z,83.15429688
2022-11-05T06:15:36.222Z,82.60498047
2022-11-05T06:16:35.915Z,82.39746094
2022-11-05T06:17:36.433Z,82.5378418
2022-11-05T06:18:36.921Z,82.74536133
2022-11-05T06:19:37.455Z,82.94677734
2022-11-05T06:20:38.022Z,82.94677734
2022-11-05T06:21:39.451Z,82.84301758
2022-11-05T06:22:39.959Z,82.64160156
2022-11-05T06:23:40.453Z,82.33032227
2022-11-05T06:24:41.959Z,82.23266602
2022-11-05T06:25:42.369Z,82.33032227
2022-11-05T06:26:42.991Z,82.33032227
2022-11-05T06:27:43.523Z,82.23266602
2022-11-05T06:28:44.121Z,82.23266602
2022-11-05T06:29:44.601Z,82.33032227
2022-11-05T06:30:45.095Z,82.43408203
2022-11-05T06:31:46.417Z,82.43408203
2022-11-05T06:32:46.844Z,82.5378418
2022-11-05T06:33:47.450Z,82.74536133
2022-11-05T06:34:47.903Z,82.84301758
2022-11-05T06:35:48.469Z,82.74536133
2022-11-05T06:36:48.927Z,82.64160156
2022-11-05T06:37:49.370Z,82.5378418
2022-11-05T06:38:49.964Z,82.5378418
2022-11-05T06:39:50.535Z,82.74536133
2022-11-05T06:41:21.832Z,82.84301758
2022-11-05T06:42:23.195Z,83.05053711
2022-11-05T06:43:23.759Z,82.94677734
2022-11-05T06:44:24.452Z,83.05053711
2022-11-05T06:45:25.167Z,83.25805664
2022-11-05T06:46:25.762Z,83.42285156
2022-11-05T06:47:26.343Z,83.45947266
2022-11-05T06:48:26.853Z,83.25805664
2022-11-05T06:49:27.428Z,83.11767578
2022-11-05T06:50:28.994Z,83.11767578
2022-11-05T06:51:29.506Z,83.01391602
2022-11-05T06:52:30.660Z,83.01391602
2022-11-05T06:53:31.268Z,83.01391602
2022-11-05T06:54:31.931Z,83.11767578
2022-11-05T06:55:32.733Z,83.11767578
2022-11-05T06:56:33.521Z,83.11767578
2022-11-05T06:57:34.196Z,83.3190918
2022-11-05T06:58:34.862Z,83.42285156
2022-11-05T06:59:35.668Z,83.52661133
2022-11-05T07:00:36.325Z,83.52661133
2022-11-05T07:01:37.075Z,83.52661133
2022-11-05T07:02:38.255Z,83.21533203
2022-11-05T07:03:38.728Z,83.11767578
2022-11-05T07:04:39.252Z,83.21533203
2022-11-05T07:05:39.934Z,83.11767578
2022-11-05T07:06:40.769Z,83.11767578
2022-11-05T07:07:41.482Z,83.11767578
2022-11-05T07:08:42.318Z,83.01391602
2022-11-05T07:09:43.001Z,83.11767578
2022-11-05T07:10:43.702Z,83.3190918
2022-11-05T07:11:44.585Z,83.01391602
2022-11-05T07:12:45.879Z,82.70263672
2022-11-05T07:13:46.359Z,82.80639648
2022-11-05T07:14:46.877Z,83.05053711
2022-11-05T07:15:47.562Z,83.36181641
2022-11-05T07:16:48.126Z,83.66699219
2022-11-05T07:17:48.819Z,83.77075195
2022-11-05T07:18:49.357Z,83.97827148
2022-11-05T07:19:49.788Z,84.07592773
2022-11-05T07:21:21.705Z,84.07592773
2022-11-05T07:22:23.011Z,84.1796875
2022-11-05T07:23:23.585Z,84.38720703
2022-11-05T07:24:24.159Z,84.44824219
2022-11-05T07:25:24.620Z,84.44824219
2022-11-05T07:26:25.148Z,84.44824219
2022-11-05T07:27:25.630Z,84.24682617
2022-11-05T07:28:26.268Z,83.93554688
2022-11-05T07:29:26.860Z,83.83178711
2022-11-05T07:30:27.524Z,84.03930664
2022-11-05T07:31:28.414Z,84.24682617
2022-11-05T07:32:29.458Z,84.34448242
2022-11-05T07:33:35.253Z,84.55200195
2022-11-05T07:34:30.515Z,84.65576172
2022-11-05T07:35:31.032Z,84.75952148
2022-11-05T07:36:31.457Z,84.85717773
2022-11-05T07:37:31.905Z,84.85717773
2022-11-05T07:38:32.448Z,83.21533203
2022-11-05T07:39:32.939Z,82.29370117
2022-11-05T07:40:34.440Z,82.18994141
2022-11-05T07:41:34.904Z,82.39746094
2022-11-05T07:42:35.459Z,82.5012207
2022-11-05T07:43:36.045Z,82.80639648
2022-11-05T07:44:36.520Z,83.21533203
2022-11-05T07:45:37.081Z,82.80639648
2022-11-05T07:46:37.608Z,82.29370117
2022-11-05T07:47:38.017Z,82.39746094
2022-11-05T07:48:38.586Z,82.91015625
2022-11-05T07:49:39.213Z,83.11767578
2022-11-05T07:50:39.714Z,83.3190918
2022-11-05T07:51:40.169Z,83.73413086
2022-11-05T07:52:41.409Z,84.00268555
2022-11-05T07:53:45.289Z,84.30786133
2022-11-05T07:54:42.440Z,84.30786133
2022-11-05T07:55:42.958Z,83.89892578
2022-11-05T07:56:43.426Z,83.38623047
2022-11-05T07:57:43.933Z,83.38623047
2022-11-05T07:58:44.447Z,83.03833008
2022-11-05T07:59:44.826Z,82.31811523
2022-11-05T08:00:45.556Z,81.90917969
2022-11-05T08:01:46.280Z,81.60400391
2022-11-05T08:02:47.490Z,80.57861328
2022-11-05T08:03:47.934Z,80.57861328
2022-11-05T08:04:48.217Z,80.57861328
2022-11-05T08:05:50.395Z,80.88378906
2022-11-05T08:07:21.213Z,80.7800293
2022-11-05T08:08:21.771Z,80.7800293
2022-11-05T08:09:22.256Z,81.09130859
2022-11-05T08:10:22.649Z,81.39648438
2022-11-05T08:11:23.122Z,81.39648438
2022-11-05T08:12:24.434Z,79.9621582
2022-11-05T08:13:24.948Z,79.9621582
2022-11-05T08:14:25.535Z,80.37109375
2022-11-05T08:15:26.014Z,80.82275391
2022-11-05T08:16:26.439Z,81.23168945
2022-11-05T08:17:27.206Z,81.02416992
2022-11-05T08:18:27.574Z,81.23168945
2022-11-05T08:19:28.115Z,81.43310547
2022-11-05T08:20:28.557Z,81.53686523
2022-11-05T08:21:29.620Z,81.43310547
2022-11-05T08:22:30.938Z,81.640625
2022-11-05T08:23:31.634Z,81.53686523
2022-11-05T08:24:32.203Z,82.09228516
2022-11-05T08:25:32.626Z,81.98852539
2022-11-05T08:26:33.153Z,82.39746094
2022-11-05T08:27:33.784Z,82.5012207
2022-11-05T08:28:34.242Z,81.98852539
2022-11-05T08:29:34.813Z,81.88476563
2022-11-05T08:30:35.298Z,82.04956055
2022-11-05T08:31:35.712Z,82.36083984
2022-11-05T08:32:36.935Z,82.56225586
2022-11-05T08:33:37.588Z,83.07495117
2022-11-05T08:34:38.244Z,83.17871094
2022-11-05T08:35:38.967Z,83.38623047
2022-11-05T08:36:39.706Z,83.38623047
2022-11-05T08:37:40.303Z,83.69140625
2022-11-05T08:38:41.746Z,83.89892578
2022-11-05T08:39:42.635Z,84.00268555
2022-11-05T08:40:43.028Z,84.1003418
2022-11-05T08:41:43.611Z,84.20410156
2022-11-05T08:42:45.047Z,83.58764648
2022-11-05T08:43:45.541Z,83.2824707
2022-11-05T08:44:46.199Z,83.17871094
2022-11-05T08:45:46.844Z,83.2824707
2022-11-05T08:46:47.293Z,83.07495117
2022-11-05T08:47:47.746Z,83.38623047
2022-11-05T08:48:48.367Z,83.48999023
2022-11-05T08:49:48.852Z,83.17871094
2022-11-05T08:51:20.066Z,82.66601563
2022-11-05T08:52:20.747Z,82.45849609
2022-11-05T08:53:22.309Z,82.36083984
2022-11-05T08:54:22.824Z,82.56225586
2022-11-05T08:55:24.009Z,82.83081055
2022-11-05T08:56:24.701Z,82.62939453
2022-11-05T08:57:25.162Z,82.421875
2022-11-05T08:58:25.641Z,82.421875
2022-11-05T08:59:26.226Z,82.52563477
2022-11-05T09:00:26.995Z,82.62939453
2022-11-05T09:01:27.799Z,82.01293945
2022-11-05T09:02:29.038Z,81.50024414
2022-11-05T09:03:30.516Z,81.70776367
2022-11-05T09:04:31.232Z,81.19506836
2022-11-05T09:05:32.126Z,81.19506836
2022-11-05T09:06:32.724Z,80.98754883
2022-11-05T09:07:33.340Z,81.19506836
2022-11-05T09:08:33.878Z,80.7800293
2022-11-05T09:09:34.378Z,79.9621582
2022-11-05T09:10:35.113Z,80.06591797
2022-11-05T09:12:05.281Z,80.16967773
2022-11-05T09:12:36.989Z,80.16967773
2022-11-05T09:13:37.606Z,80.26733398
2022-11-05T09:14:38.638Z,80.57861328
2022-11-05T09:15:39.157Z,80.57861328
2022-11-05T09:16:39.724Z,80.68237305
2022-11-05T09:17:40.295Z,80.57861328
2022-11-05T09:18:40.747Z,79.75463867
2022-11-05T09:19:41.349Z,79.9621582
2022-11-05T09:20:41.897Z,79.85839844
2022-11-05T09:21:42.407Z,80.06591797
2022-11-05T09:22:43.944Z,80.26733398
2022-11-05T09:23:44.473Z,80.37109375
2022-11-05T09:24:44.979Z,80.16967773
2022-11-05T09:25:45.441Z,79.55322266
2022-11-05T09:26:45.917Z,79.9621582
2022-11-05T09:27:46.463Z,80.16967773
2022-11-05T09:28:46.968Z,79.9621582
2022-11-05T09:29:47.524Z,80.06591797
2022-11-05T09:30:48.040Z,80.16967773
2022-11-05T09:31:48.480Z,79.85839844
2022-11-05T09:33:20.216Z,79.44946289
2022-11-05T09:34:20.812Z,79.14428711
2022-11-05T09:35:21.343Z,79.58984375
2022-11-05T09:36:21.829Z,79.69360352
2022-11-05T09:37:22.280Z,79.79736328
2022-11-05T09:38:23.065Z,79.79736328
2022-11-05T09:39:23.688Z,80.10253906
2022-11-05T09:40:24.258Z,79.9621582
2022-11-05T09:41:24.755Z,78.93676758
2022-11-05T09:42:25.163Z,79.14428711
2022-11-05T09:43:31.477Z,79.24194336
2022-11-05T09:44:26.884Z,79.14428711
2022-11-05T09:45:27.381Z,79.14428711
2022-11-05T09:46:27.964Z,79.30908203
2022-11-05T09:47:28.360Z,79.51660156
2022-11-05T09:48:28.872Z,79.62036133
2022-11-05T09:49:29.491Z,79.51660156
2022-11-05T09:50:29.976Z,79.20532227
2022-11-05T09:51:31.443Z,79.51660156
2022-11-05T09:52:31.992Z,78.5949707
2022-11-05T09:53:33.208Z,78.66210938
2022-11-05T09:54:33.864Z,78.55834961
2022-11-05T09:55:34.378Z,78.45458984
2022-11-05T09:56:34.933Z,77.53295898
2022-11-05T09:57:35.508Z,77.2277832
2022-11-05T09:58:36.244Z,77.53295898
2022-11-05T09:59:36.819Z,77.2277832
2022-11-05T10:00:37.316Z,77.94189453
2022-11-05T10:01:38.148Z,78.14941406
2022-11-05T10:02:38.449Z,77.94189453
2022-11-05T10:03:38.830Z,77.734375
2022-11-05T10:04:40.285Z,77.39257813
2022-11-05T10:05:41.070Z,77.12402344
2022-11-05T10:06:41.588Z,76.61132813
2022-11-05T10:07:42.040Z,76.50756836
2022-11-05T10:08:42.604Z,77.02026367
2022-11-05T10:09:43.137Z,77.12402344
2022-11-05T10:10:43.641Z,77.53295898
2022-11-05T10:11:44.216Z,77.83813477
2022-11-05T10:12:44.808Z,78.0456543
2022-11-05T10:13:45.369Z,77.53295898
2022-11-05T10:14:46.737Z,77.734375
2022-11-05T10:15:47.283Z,78.14941406
2022-11-05T10:16:47.847Z,77.42919922
2022-11-05T10:18:18.911Z,78.0456543
2022-11-05T10:19:19.389Z,78.0456543
2022-11-05T10:20:19.912Z,77.63671875
2022-11-05T10:21:37.732Z,77.734375
2022-11-05T10:22:21.255Z,77.2277832
2022-11-05T10:23:22.689Z,77.46582031
2022-11-05T10:24:24.303Z,77.53295898
2022-11-05T10:25:24.850Z,77.734375
2022-11-05T10:26:25.588Z,77.2277832
2022-11-05T10:27:26.177Z,77.2277832
2022-11-05T10:28:26.609Z,76.71508789
2022-11-05T10:29:27.118Z,76.50756836
2022-11-05T10:30:27.579Z,76.33666992
2022-11-05T10:31:32.853Z,75.51879883
2022-11-05T10:32:29.454Z,75.92773438
2022-11-05T10:33:30.945Z,76.13525391
2022-11-05T10:34:31.587Z,76.23901367
2022-11-05T10:35:32.206Z,76.54418945
2022-11-05T10:36:32.774Z,76.33666992
2022-11-05T10:37:36.969Z,76.44042969
2022-11-05T10:38:34.207Z,76.44042969
2022-11-05T10:39:35.098Z,76.44042969
2022-11-05T10:40:35.748Z,76.13525391
2022-11-05T10:41:36.447Z,76.953125
2022-11-05T10:42:37.124Z,78.18603516
2022-11-05T10:43:38.547Z,78.49121094
2022-11-05T10:44:39.247Z,77.46582031
2022-11-05T10:45:39.933Z,77.53295898
2022-11-05T10:46:40.532Z,77.53295898
2022-11-05T10:47:41.242Z,76.91650391
2022-11-05T10:48:43.840Z,77.32543945
2022-11-05T10:49:42.488Z,77.2277832
2022-11-05T10:50:43.038Z,77.2277832
2022-11-05T10:51:44.480Z,76.40380859
2022-11-05T10:52:45.254Z,75.68969727
2022-11-05T10:53:46.533Z,76.06201172
2022-11-05T10:54:47.196Z,75.54931641
2022-11-05T10:56:18.549Z,75.65307617
2022-11-05T10:57:19.451Z,75.95825195
2022-11-05T10:58:20.932Z,75.95825195
2022-11-05T10:59:21.586Z,75.61645508
2022-11-05T11:00:22.975Z,75.41503906
2022-11-05T11:01:23.995Z,74.79858398
2022-11-05T11:02:24.669Z,74.35302734
2022-11-05T11:03:25.400Z,74.76196289
2022-11-05T11:04:26.914Z,74.01733398
2022-11-05T11:05:27.721Z,73.91357422
2022-11-05T11:06:28.464Z,73.91357422